Time;durP1;ratioP1;P1;durP2;ratioP2;P2;SDS_P1;SDS_P2;PMS_P1;PMS_P2;Temp;Humidity;BMP_temperature;BMP_pressure;BME280_temperature;BME280_humidity;BME280_pressure;Samples;Min_cycle;Max_cycle;Signal;HPM_P1;HPM_P2
2020/12/04 00:01:35;;;;;;;;;;;3.00;99.90;;;;;;5115558;28;19920;-77
2020/12/04 00:04:01;;;;;;;;;;;3.00;99.90;;;;;;5116563;28;19972;-77
2020/12/04 00:06:26;;;;;;;;;;;2.90;99.90;;;;;;5115165;28;19923;-77
2020/12/04 00:08:53;;;;;;;;;;;2.90;99.90;;;;;;5115837;28;19923;-77
2020/12/04 00:11:18;;;;;;;;;;;3.00;99.90;;;;;;5116291;28;19949;-77
2020/12/04 00:13:44;;;;;;;;;;;3.00;99.90;;;;;;5116303;28;19916;-77
2020/12/04 00:16:09;;;;;;;;;;;2.90;99.90;;;;;;5116354;28;19930;-77
2020/12/04 00:18:35;;;;;;;;;;;2.90;99.90;;;;;;5115892;28;20022;-78
2020/12/04 00:21:00;;;;;;;;;;;2.90;99.90;;;;;;5115821;28;20315;-77
2020/12/04 00:23:26;;;;;;;;;;;2.90;99.90;;;;;;5115005;28;20027;-77
2020/12/04 00:25:52;;;;;;;;;;;2.90;99.90;;;;;;5115987;28;20362;-77
2020/12/04 00:28:17;;;;;;;;;;;2.90;99.90;;;;;;5115958;28;19926;-77
2020/12/04 00:30:43;;;;;;;;;;;3.00;99.90;;;;;;5114332;28;19915;-77
2020/12/04 00:33:09;;;;;;;;;;;3.00;99.90;;;;;;5116291;28;19916;-77
2020/12/04 00:35:34;;;;;;;;;;;3.00;99.90;;;;;;5114814;28;19959;-77
2020/12/04 00:38:00;;;;;;;;;;;3.10;99.90;;;;;;5115995;28;19923;-77
2020/12/04 00:40:25;;;;;;;;;;;3.10;99.90;;;;;;5115796;28;19916;-77
2020/12/04 00:42:51;;;;;;;;;;;3.10;99.90;;;;;;5115769;28;19915;-77
2020/12/04 00:45:17;;;;;;;;;;;3.10;99.90;;;;;;5115726;28;20001;-77
2020/12/04 00:47:42;;;;;;;;;;;3.10;99.90;;;;;;5115184;28;19919;-77
2020/12/04 00:50:08;;;;;;;;;;;3.10;99.90;;;;;;5115159;28;19955;-77
2020/12/04 00:52:33;;;;;;;;;;;3.10;99.90;;;;;;5115550;28;19915;-77
2020/12/04 00:54:59;;;;;;;;;;;3.00;99.90;;;;;;5115469;28;19988;-77
2020/12/04 00:57:24;;;;;;;;;;;3.00;99.90;;;;;;5115503;28;19947;-77
2020/12/04 00:59:51;;;;;;;;;;;3.10;99.90;;;;;;5115301;28;19922;-77
2020/12/04 01:02:16;;;;;;;;;;;3.10;99.90;;;;;;5116122;28;19926;-77
2020/12/04 01:04:42;;;;;;;;;;;3.10;99.90;;;;;;5115466;28;19916;-77
2020/12/04 01:07:07;;;;;;;;;;;3.10;99.90;;;;;;5115442;28;20279;-77
2020/12/04 01:09:33;;;;;;;;;;;3.00;99.90;;;;;;5113312;28;19922;-77
2020/12/04 01:11:59;;;;;;;;;;;3.20;99.90;;;;;;5114004;28;19916;-77
2020/12/04 01:14:25;;;;;;;;;;;3.10;99.90;;;;;;5115479;28;19919;-77
2020/12/04 01:16:51;;;;;;;;;;;3.20;99.90;;;;;;5115141;28;19916;-77
2020/12/04 01:19:17;;;;;;;;;;;3.30;99.90;;;;;;5108475;28;20365;-77
2020/12/04 01:21:42;;;;;;;;;;;3.20;99.90;;;;;;5094771;28;19922;-78
2020/12/04 01:24:08;;;;;;;;;;;3.20;99.90;;;;;;5094188;28;20006;-77
2020/12/04 01:26:34;;;;;;;;;;;3.20;99.90;;;;;;5094605;28;19916;-77
2020/12/04 01:28:59;;;;;;;;;;;3.10;99.90;;;;;;5092574;28;19920;-77
2020/12/04 01:31:25;;;;;;;;;;;3.20;99.90;;;;;;5113805;28;19916;-77
2020/12/04 01:33:51;;;;;;;;;;;3.20;99.90;;;;;;5113176;28;19915;-77
2020/12/04 01:36:17;;;;;;;;;;;3.20;99.90;;;;;;5114416;28;19923;-77
2020/12/04 01:38:42;;;;;;;;;;;3.30;99.90;;;;;;5114365;28;19922;-78
2020/12/04 01:41:08;;;;;;;;;;;3.30;99.90;;;;;;5114487;28;20383;-77
2020/12/04 01:43:33;;;;;;;;;;;3.30;99.90;;;;;;5114911;28;19922;-77
2020/12/04 01:45:59;;;;;;;;;;;3.30;99.90;;;;;;5114568;28;19916;-77
2020/12/04 01:48:24;;;;;;;;;;;3.40;99.90;;;;;;5113381;28;20038;-77
2020/12/04 01:50:51;;;;;;;;;;;3.40;99.90;;;;;;5112843;28;19959;-77
2020/12/04 01:53:17;;;;;;;;;;;3.40;99.90;;;;;;5113364;28;20395;-77
2020/12/04 01:55:43;;;;;;;;;;;3.30;99.90;;;;;;5114601;28;19970;-77
2020/12/04 01:58:10;;;;;;;;;;;3.30;99.90;;;;;;5114796;28;19916;-77
2020/12/04 02:00:35;;;;;;;;;;;3.40;99.90;;;;;;5111745;28;19916;-77
2020/12/04 02:03:02;;;;;;;;;;;3.40;99.90;;;;;;5113165;28;19916;-77
2020/12/04 02:05:27;;;;;;;;;;;3.40;99.90;;;;;;5114394;28;20034;-77
2020/12/04 02:07:58;;;;;;;;;;;3.40;99.90;;;;;;5114442;28;20018;-77
2020/12/04 02:10:28;;;;;;;;;;;3.40;99.90;;;;;;5112640;28;19924;-77
2020/12/04 02:12:54;;;;;;;;;;;3.30;99.90;;;;;;5113128;28;19915;-77
2020/12/04 02:15:19;;;;;;;;;;;3.40;99.90;;;;;;5113674;28;19940;-77
2020/12/04 02:17:45;;;;;;;;;;;3.30;99.90;;;;;;5114503;28;19923;-78
2020/12/04 02:20:12;;;;;;;;;;;3.30;99.90;;;;;;5114030;28;19963;-78
2020/12/04 02:22:38;;;;;;;;;;;3.40;99.90;;;;;;5113415;28;19919;-77
2020/12/04 02:25:05;;;;;;;;;;;3.30;99.90;;;;;;5114268;28;20030;-78
2020/12/04 02:27:30;;;;;;;;;;;3.30;99.90;;;;;;5114363;28;19919;-77
2020/12/04 02:29:56;;;;;;;;;;;3.30;99.90;;;;;;5113812;28;20435;-77
2020/12/04 02:32:22;;;;;;;;;;;3.30;99.90;;;;;;5114135;28;20330;-77
2020/12/04 02:34:47;;;;;;;;;;;3.20;99.90;;;;;;5114273;28;19965;-77
2020/12/04 02:37:12;;;;;;;;;;;3.30;99.90;;;;;;5113044;28;19955;-77
2020/12/04 02:39:39;;;;;;;;;;;3.20;99.90;;;;;;5112453;28;19922;-77
2020/12/04 02:42:04;;;;;;;;;;;3.30;99.90;;;;;;5112844;28;19942;-77
2020/12/04 02:44:30;;;;;;;;;;;3.20;99.90;;;;;;5114974;28;20393;-77
2020/12/04 02:46:56;;;;;;;;;;;3.20;99.90;;;;;;5114183;28;19985;-77
2020/12/04 02:49:21;;;;;;;;;;;3.30;99.90;;;;;;5113475;28;19919;-77
2020/12/04 02:51:47;;;;;;;;;;;3.30;99.90;;;;;;5114092;28;19919;-77
2020/12/04 02:54:12;;;;;;;;;;;3.20;99.90;;;;;;5114029;28;20368;-77
2020/12/04 02:56:39;;;;;;;;;;;3.20;99.90;;;;;;5114166;28;19915;-77
2020/12/04 02:59:04;;;;;;;;;;;3.20;99.90;;;;;;5112335;28;19920;-77
2020/12/04 03:01:29;;;;;;;;;;;3.20;99.90;;;;;;5114003;28;19922;-77
2020/12/04 03:03:55;;;;;;;;;;;3.20;99.90;;;;;;5114105;28;19923;-77
2020/12/04 03:06:20;;;;;;;;;;;3.20;99.90;;;;;;5114130;28;20003;-77
2020/12/04 03:08:46;;;;;;;;;;;3.30;99.90;;;;;;5113603;28;19945;-77
2020/12/04 03:11:11;;;;;;;;;;;3.30;99.90;;;;;;5115722;28;19922;-77
2020/12/04 03:13:38;;;;;;;;;;;3.30;99.90;;;;;;5116254;28;19920;-77
2020/12/04 03:16:03;;;;;;;;;;;3.40;99.90;;;;;;5116321;28;19919;-77
2020/12/04 03:18:29;;;;;;;;;;;3.40;99.90;;;;;;5117906;28;20035;-77
2020/12/04 03:20:54;;;;;;;;;;;3.40;99.90;;;;;;5116699;28;19969;-77
2020/12/04 03:23:20;;;;;;;;;;;3.30;99.90;;;;;;5117746;28;20349;-77
2020/12/04 03:25:46;;;;;;;;;;;3.40;99.90;;;;;;5117405;28;19916;-77
2020/12/04 03:28:11;;;;;;;;;;;3.40;99.90;;;;;;5117214;27;19920;-77
2020/12/04 03:30:37;;;;;;;;;;;3.40;99.90;;;;;;5116869;28;20322;-77
2020/12/04 03:33:03;;;;;;;;;;;3.40;99.90;;;;;;5117131;28;19935;-77
2020/12/04 03:35:28;;;;;;;;;;;3.40;99.90;;;;;;5115806;28;19915;-77
2020/12/04 03:37:54;;;;;;;;;;;3.40;99.90;;;;;;5117377;28;20426;-77
2020/12/04 03:40:19;;;;;;;;;;;3.40;99.90;;;;;;5116790;28;19947;-77
2020/12/04 03:42:45;;;;;;;;;;;3.30;99.90;;;;;;5116942;28;19922;-78
2020/12/04 03:45:10;;;;;;;;;;;3.30;99.90;;;;;;5115728;28;19916;-78
2020/12/04 03:47:38;;;;;;;;;;;3.30;99.90;;;;;;5116967;28;19920;-78
2020/12/04 03:50:04;;;;;;;;;;;3.30;99.90;;;;;;5115013;28;19923;-78
2020/12/04 03:52:29;;;;;;;;;;;3.30;99.90;;;;;;5116842;28;19916;-78
2020/12/04 03:54:55;;;;;;;;;;;3.30;99.90;;;;;;5117242;28;19922;-78
2020/12/04 03:57:20;;;;;;;;;;;3.30;99.90;;;;;;5115684;28;19965;-78
2020/12/04 03:59:46;;;;;;;;;;;3.30;99.90;;;;;;5116289;28;19915;-78
2020/12/04 04:02:11;;;;;;;;;;;3.30;99.90;;;;;;5116745;28;19923;-78
2020/12/04 04:04:37;;;;;;;;;;;3.20;99.90;;;;;;5117098;28;19919;-78
2020/12/04 04:07:03;;;;;;;;;;;3.20;99.90;;;;;;5117403;28;19920;-78
2020/12/04 04:09:28;;;;;;;;;;;3.30;99.90;;;;;;5115096;28;19977;-78
2020/12/04 04:11:54;;;;;;;;;;;3.20;99.90;;;;;;5116767;28;20014;-79
2020/12/04 04:14:19;;;;;;;;;;;3.30;99.90;;;;;;5116584;28;19915;-78
2020/12/04 04:16:45;;;;;;;;;;;3.20;99.90;;;;;;5116543;28;20010;-78
2020/12/04 04:19:10;;;;;;;;;;;3.20;99.90;;;;;;5114739;28;20372;-78
2020/12/04 04:21:39;;;;;;;;;;;3.20;99.90;;;;;;5114767;28;19923;-78
2020/12/04 04:24:05;;;;;;;;;;;3.20;99.90;;;;;;5116360;28;19951;-78
2020/12/04 04:26:30;;;;;;;;;;;3.20;99.90;;;;;;5115056;28;19923;-78
2020/12/04 04:28:55;;;;;;;;;;;3.20;99.90;;;;;;5115831;28;19924;-78
2020/12/04 04:31:21;;;;;;;;;;;3.10;99.90;;;;;;5116280;28;19945;-78
2020/12/04 04:33:46;;;;;;;;;;;3.20;99.90;;;;;;5114897;28;19922;-79
2020/12/04 04:36:12;;;;;;;;;;;3.20;99.90;;;;;;5116349;28;20018;-78
2020/12/04 04:38:38;;;;;;;;;;;3.30;99.90;;;;;;5114180;28;20372;-78
2020/12/04 04:41:04;;;;;;;;;;;3.30;99.90;;;;;;5115075;28;19964;-78
2020/12/04 04:43:29;;;;;;;;;;;3.30;99.90;;;;;;5116378;28;19915;-78
2020/12/04 04:46:00;;;;;;;;;;;3.20;99.90;;;;;;5116249;28;19920;-78
2020/12/04 04:48:26;;;;;;;;;;;3.30;99.90;;;;;;5114428;28;19919;-79
2020/12/04 04:50:53;;;;;;;;;;;3.40;99.90;;;;;;5115329;28;19922;-78
2020/12/04 04:53:19;;;;;;;;;;;3.40;99.90;;;;;;5115941;28;19916;-79
2020/12/04 04:55:46;;;;;;;;;;;3.30;99.90;;;;;;5114332;28;20340;-78
2020/12/04 04:58:11;;;;;;;;;;;3.10;99.90;;;;;;5114573;28;20456;-78
2020/12/04 05:00:37;;;;;;;;;;;3.30;99.90;;;;;;5115232;28;19954;-77
2020/12/04 05:03:03;;;;;;;;;;;3.30;99.90;;;;;;5114247;28;20330;-77
2020/12/04 05:05:42;;;;;;;;;;;3.50;99.90;;;;;;5115633;28;20019;-77
2020/12/04 05:08:14;;;;;;;;;;;3.40;99.90;;;;;;5115772;28;20010;-77
2020/12/04 05:10:40;;;;;;;;;;;3.50;99.90;;;;;;5114775;28;19916;-77
2020/12/04 05:13:06;;;;;;;;;;;3.50;99.90;;;;;;5114018;28;19968;-77
2020/12/04 05:15:32;;;;;;;;;;;3.50;99.90;;;;;;5115318;28;19920;-77
2020/12/04 05:17:59;;;;;;;;;;;3.60;99.90;;;;;;5115077;28;19942;-77
2020/12/04 05:20:24;;;;;;;;;;;3.60;99.90;;;;;;5113149;28;19919;-77
2020/12/04 05:22:52;;;;;;;;;;;3.70;99.90;;;;;;5115049;28;19922;-77
2020/12/04 05:25:17;;;;;;;;;;;3.70;99.90;;;;;;5115150;28;19926;-77
2020/12/04 05:27:43;;;;;;;;;;;3.60;99.90;;;;;;5113998;28;19919;-77
2020/12/04 05:30:09;;;;;;;;;;;3.70;99.90;;;;;;5112963;28;20006;-77
2020/12/04 05:32:35;;;;;;;;;;;3.70;99.90;;;;;;5114924;28;19925;-77
2020/12/04 05:35:04;;;;;;;;;;;3.70;99.90;;;;;;5114940;28;20014;-77
2020/12/04 05:37:30;;;;;;;;;;;3.70;99.90;;;;;;5115068;28;19923;-77
2020/12/04 05:39:55;;;;;;;;;;;3.70;99.90;;;;;;5114246;28;20319;-77
2020/12/04 05:42:30;;;;;;;;;;;3.70;99.90;;;;;;5115024;28;19961;-77
2020/12/04 05:44:56;;;;;;;;;;;3.70;99.90;;;;;;5113464;28;19915;-77
2020/12/04 05:47:33;;;;;;;;;;;3.70;99.90;;;;;;5114545;28;19938;-77
2020/12/04 05:49:58;;;;;;;;;;;3.70;99.90;;;;;;5112930;28;19926;-77
2020/12/04 05:52:24;;;;;;;;;;;3.70;99.90;;;;;;5113319;28;19920;-77
2020/12/04 05:54:49;;;;;;;;;;;3.70;99.90;;;;;;5114876;28;19923;-77
2020/12/04 05:57:16;;;;;;;;;;;3.80;99.90;;;;;;5114503;28;19920;-77
2020/12/04 05:59:44;;;;;;;;;;;3.80;99.90;;;;;;5114063;28;19915;-77
2020/12/04 06:02:12;;;;;;;;;;;3.80;99.90;;;;;;5114461;28;19916;-77
2020/12/04 06:04:38;;;;;;;;;;;4.00;99.90;;;;;;5114970;28;20085;-77
2020/12/04 06:07:05;;;;;;;;;;;3.90;99.90;;;;;;5113478;28;20015;-77
2020/12/04 06:09:31;;;;;;;;;;;4.00;99.90;;;;;;5113092;28;20361;-77
2020/12/04 06:11:57;;;;;;;;;;;4.00;99.90;;;;;;5115096;28;19937;-77
2020/12/04 06:14:23;;;;;;;;;;;4.00;99.90;;;;;;5114427;28;19915;-77
2020/12/04 06:17:08;;;;;;;;;;;4.00;99.90;;;;;;5113133;28;20456;-77
2020/12/04 06:19:35;;;;;;;;;;;4.00;99.90;;;;;;5114080;28;20330;-77
2020/12/04 06:22:05;;;;;;;;;;;4.00;99.90;;;;;;5113338;28;19915;-77
2020/12/04 06:24:31;;;;;;;;;;;4.10;99.90;;;;;;5114507;28;19927;-77
2020/12/04 06:26:56;;;;;;;;;;;4.10;99.90;;;;;;5114423;28;19919;-77
2020/12/04 06:29:22;;;;;;;;;;;4.10;99.90;;;;;;5114330;28;19985;-77
2020/12/04 06:31:47;;;;;;;;;;;4.20;99.90;;;;;;5112954;28;19963;-77
2020/12/04 06:34:14;;;;;;;;;;;4.20;99.90;;;;;;5114425;28;19958;-77
2020/12/04 06:36:39;;;;;;;;;;;4.20;99.90;;;;;;5114518;28;19915;-77
2020/12/04 06:39:06;;;;;;;;;;;4.30;99.90;;;;;;5112409;28;19923;-77
2020/12/04 06:41:33;;;;;;;;;;;4.20;99.90;;;;;;5114657;28;19927;-77
2020/12/04 06:43:59;;;;;;;;;;;4.30;99.90;;;;;;5114156;28;19916;-77
2020/12/04 06:46:29;;;;;;;;;;;4.30;99.90;;;;;;5116533;28;19915;-77
2020/12/04 06:49:06;;;;;;;;;;;4.30;99.90;;;;;;5117917;28;19923;-77
2020/12/04 06:51:32;;;;;;;;;;;4.30;99.90;;;;;;5118453;28;19916;-77
2020/12/04 06:53:57;;;;;;;;;;;4.30;99.90;;;;;;5118434;28;19926;-77
2020/12/04 06:56:25;;;;;;;;;;;4.20;99.90;;;;;;5118185;28;20300;-77
2020/12/04 06:58:50;;;;;;;;;;;4.30;99.90;;;;;;5117375;28;19949;-77
2020/12/04 07:01:17;;;;;;;;;;;4.20;99.90;;;;;;5117666;28;19922;-77
2020/12/04 07:03:42;;;;;;;;;;;4.20;99.90;;;;;;5118052;28;19916;-77
2020/12/04 07:06:08;;;;;;;;;;;4.20;99.90;;;;;;5117827;28;19919;-77
2020/12/04 07:08:33;;;;;;;;;;;4.20;99.90;;;;;;5117534;28;20253;-78
2020/12/04 07:11:01;;;;;;;;;;;4.20;99.90;;;;;;5115837;28;19915;-77
2020/12/04 07:13:27;;;;;;;;;;;4.20;99.90;;;;;;5116219;28;19949;-77
2020/12/04 07:15:58;;;;;;;;;;;4.20;99.90;;;;;;5116552;28;19969;-77
2020/12/04 07:18:28;;;;;;;;;;;4.20;99.90;;;;;;5117638;28;19915;-77
2020/12/04 07:20:55;;;;;;;;;;;4.20;99.90;;;;;;5116735;28;20014;-77
2020/12/04 07:23:21;;;;;;;;;;;4.10;99.90;;;;;;5117304;28;20310;-77
2020/12/04 07:25:46;;;;;;;;;;;4.10;99.90;;;;;;5117360;28;19915;-78
2020/12/04 07:28:12;;;;;;;;;;;4.20;99.90;;;;;;5117279;28;20269;-78
2020/12/04 07:30:38;;;;;;;;;;;4.10;99.90;;;;;;5116669;28;19927;-77
2020/12/04 07:33:04;;;;;;;;;;;4.20;99.90;;;;;;5117172;28;19919;-78
2020/12/04 07:35:29;;;;;;;;;;;4.30;99.90;;;;;;5117196;28;19965;-77
2020/12/04 07:37:55;;;;;;;;;;;4.30;99.90;;;;;;5117409;28;19934;-78
2020/12/04 07:40:20;;;;;;;;;;;4.30;99.90;;;;;;5116691;28;19916;-78
2020/12/04 07:42:48;;;;;;;;;;;4.40;99.90;;;;;;5115894;28;20262;-78
2020/12/04 07:45:14;;;;;;;;;;;4.40;99.90;;;;;;5117168;28;20368;-78
2020/12/04 07:47:42;;;;;;;;;;;4.30;99.90;;;;;;5115702;28;20014;-78
2020/12/04 07:50:08;;;;;;;;;;;4.40;99.90;;;;;;5116782;28;20316;-78
2020/12/04 07:52:36;;;;;;;;;;;4.30;99.90;;;;;;5116882;28;19922;-78
2020/12/04 07:55:03;;;;;;;;;;;4.40;99.90;;;;;;5115648;28;19916;-78
2020/12/04 07:57:32;;;;;;;;;;;4.40;99.90;;;;;;5115378;28;19919;-78
2020/12/04 07:59:59;;;;;;;;;;;4.40;99.90;;;;;;5116152;28;19920;-78
2020/12/04 08:02:25;;;;;;;;;;;4.40;99.90;;;;;;5116515;28;19951;-77
2020/12/04 08:04:52;;;;;;;;;;;4.40;99.90;;;;;;5116642;28;19937;-77
2020/12/04 08:07:17;;;;;;;;;;;4.50;99.90;;;;;;5116500;28;20019;-78
2020/12/04 08:09:43;;;;;;;;;;;4.50;99.90;;;;;;5115945;28;20360;-78
2020/12/04 08:12:16;;;;;;;;;;;4.50;99.90;;;;;;5115327;28;19961;-78
2020/12/04 08:14:47;;;;;;;;;;;4.40;99.90;;;;;;5115147;28;19920;-78
2020/12/04 08:17:16;;;;;;;;;;;4.40;99.90;;;;;;5116604;28;19916;-78
2020/12/04 08:19:42;;;;;;;;;;;4.50;99.90;;;;;;5114415;28;20026;-78
2020/12/04 08:22:09;;;;;;;;;;;4.60;99.90;;;;;;5114999;28;20330;-78
2020/12/04 08:24:35;;;;;;;;;;;4.50;99.90;;;;;;5116130;28;19962;-78
2020/12/04 08:27:04;;;;;;;;;;;4.50;99.90;;;;;;5114759;28;19951;-78
2020/12/04 08:29:29;;;;;;;;;;;4.50;99.90;;;;;;5115442;28;20350;-79
2020/12/04 08:32:02;;;;;;;;;;;4.50;99.90;;;;;;5115821;28;19931;-78
2020/12/04 08:34:27;;;;;;;;;;;4.50;99.90;;;;;;5114698;28;20408;-78
2020/12/04 08:36:57;;;;;;;;;;;4.50;99.90;;;;;;5114659;28;19969;-78
2020/12/04 08:39:33;;;;;;;;;;;4.60;99.90;;;;;;5114079;28;19959;-78
2020/12/04 08:42:08;;;;;;;;;;;4.60;99.90;;;;;;5115819;28;19924;-79
2020/12/04 08:44:34;;;;;;;;;;;4.70;99.90;;;;;;5115779;28;19915;-79
2020/12/04 08:46:59;;;;;;;;;;;4.70;99.90;;;;;;5115687;28;20291;-79
2020/12/04 08:49:25;;;;;;;;;;;4.60;99.90;;;;;;5113825;28;20010;-79
2020/12/04 08:51:51;;;;;;;;;;;4.80;99.90;;;;;;5115481;28;19915;-79
2020/12/04 08:54:16;;;;;;;;;;;4.80;99.90;;;;;;5115933;28;19963;-78
2020/12/04 08:56:51;;;;;;;;;;;4.80;99.90;;;;;;5115584;28;19922;-78
2020/12/04 08:59:16;;;;;;;;;;;4.90;99.90;;;;;;5115079;28;19919;-78
2020/12/04 09:01:42;;;;;;;;;;;5.00;99.90;;;;;;5115693;28;19994;-78
2020/12/04 09:04:07;;;;;;;;;;;5.00;99.90;;;;;;5114251;28;19942;-78
2020/12/04 09:06:33;;;;;;;;;;;5.00;99.90;;;;;;5115354;28;19916;-78
2020/12/04 09:08:58;;;;;;;;;;;5.00;99.90;;;;;;5114564;28;20022;-78
2020/12/04 09:11:24;;;;;;;;;;;5.10;99.90;;;;;;5111164;28;19919;-78
2020/12/04 09:13:50;;;;;;;;;;;5.10;99.90;;;;;;5113589;28;20385;-79
2020/12/04 09:16:16;;;;;;;;;;;5.10;99.90;;;;;;5112371;28;19930;-78
2020/12/04 09:18:41;;;;;;;;;;;5.10;99.90;;;;;;5112989;28;20006;-78
2020/12/04 09:21:06;;;;;;;;;;;5.10;99.90;;;;;;5111831;28;19988;-78
2020/12/04 09:23:34;;;;;;;;;;;5.20;99.90;;;;;;5113125;28;20007;-77
2020/12/04 09:25:59;;;;;;;;;;;5.10;99.90;;;;;;5113330;28;20381;-77
2020/12/04 09:28:25;;;;;;;;;;;5.20;99.90;;;;;;5113006;28;20022;-78
2020/12/04 09:30:51;;;;;;;;;;;5.20;99.90;;;;;;5112705;28;20002;-77
2020/12/04 09:33:16;;;;;;;;;;;5.20;99.90;;;;;;5111818;28;19930;-77
2020/12/04 09:35:42;;;;;;;;;;;5.20;99.90;;;;;;5111589;28;19915;-78
2020/12/04 09:38:07;;;;;;;;;;;5.30;99.90;;;;;;5113006;28;20385;-77
2020/12/04 09:40:33;;;;;;;;;;;5.30;99.90;;;;;;5112520;28;19959;-77
2020/12/04 09:42:58;;;;;;;;;;;5.30;99.90;;;;;;5111597;28;19958;-77
2020/12/04 09:45:24;;;;;;;;;;;5.40;99.90;;;;;;5112958;28;19919;-77
2020/12/04 09:47:50;;;;;;;;;;;5.40;99.90;;;;;;5112542;28;19959;-78
2020/12/04 09:50:16;;;;;;;;;;;5.30;99.90;;;;;;5112490;28;19924;-77
2020/12/04 09:52:41;;;;;;;;;;;5.40;99.90;;;;;;5112742;28;19916;-77
2020/12/04 09:55:08;;;;;;;;;;;5.40;99.90;;;;;;5111618;28;20018;-77
2020/12/04 09:57:34;;;;;;;;;;;5.40;99.90;;;;;;5112715;27;19926;-77
2020/12/04 09:59:59;;;;;;;;;;;5.50;99.90;;;;;;5110824;28;19915;-77
2020/12/04 10:02:25;;;;;;;;;;;5.50;99.90;;;;;;5111347;28;20273;-77
2020/12/04 10:04:52;;;;;;;;;;;5.50;99.90;;;;;;5112736;28;19923;-77
2020/12/04 10:07:17;;;;;;;;;;;5.50;99.90;;;;;;5111495;28;19920;-78
2020/12/04 10:09:42;;;;;;;;;;;5.60;99.90;;;;;;5112100;28;20395;-77
2020/12/04 10:12:08;;;;;;;;;;;5.60;99.90;;;;;;5110965;28;20032;-77
2020/12/04 10:14:34;;;;;;;;;;;5.60;99.90;;;;;;5111599;27;20241;-78
2020/12/04 10:17:00;;;;;;;;;;;5.70;99.90;;;;;;5108439;28;19923;-78
2020/12/04 10:19:26;;;;;;;;;;;5.60;99.90;;;;;;5091488;28;20443;-78
2020/12/04 10:21:52;;;;;;;;;;;5.60;99.90;;;;;;5094871;28;19942;-78
2020/12/04 10:24:19;;;;;;;;;;;5.70;99.90;;;;;;5096205;28;19924;-77
2020/12/04 10:26:45;;;;;;;;;;;5.60;99.90;;;;;;5096221;28;19916;-77
2020/12/04 10:29:11;;;;;;;;;;;5.60;99.90;;;;;;5094371;28;19924;-77
2020/12/04 10:31:37;;;;;;;;;;;5.80;99.90;;;;;;5096093;28;19915;-77
2020/12/04 10:34:03;;;;;;;;;;;5.70;99.90;;;;;;5095806;28;19959;-77
2020/12/04 10:36:29;;;;;;;;;;;5.80;99.90;;;;;;5094793;28;19927;-77
2020/12/04 10:38:56;;;;;;;;;;;5.80;99.90;;;;;;5094227;28;19969;-77
2020/12/04 10:41:21;;;;;;;;;;;6.00;99.90;;;;;;5095818;28;19966;-77
2020/12/04 10:43:47;;;;;;;;;;;5.90;99.90;;;;;;5094610;28;19967;-77
2020/12/04 10:46:12;;;;;;;;;;;5.80;99.90;;;;;;5095524;28;20350;-78
2020/12/04 10:48:38;;;;;;;;;;;5.90;99.90;;;;;;5094019;28;19928;-78
2020/12/04 10:51:03;;;;;;;;;;;5.80;99.90;;;;;;5094353;28;20416;-77
2020/12/04 10:53:29;;;;;;;;;;;5.80;99.90;;;;;;5094632;28;19927;-77
2020/12/04 10:55:55;;;;;;;;;;;5.90;99.90;;;;;;5095735;28;19916;-77
2020/12/04 10:58:21;;;;;;;;;;;6.00;99.90;;;;;;5093982;28;19920;-78
2020/12/04 11:00:49;;;;;;;;;;;5.90;99.90;;;;;;5095223;28;19939;-77
2020/12/04 11:05:44;;;;;;;;;;;6.00;99.90;;;;;;5095584;28;19947;-78
2020/12/04 11:08:10;;;;;;;;;;;6.00;99.90;;;;;;5095494;28;19920;-76
2020/12/04 11:10:36;;;;;;;;;;;6.10;99.90;;;;;;5094748;28;19919;-77
2020/12/04 11:13:03;;;;;;;;;;;6.10;99.90;;;;;;5095380;28;19927;-78
2020/12/04 11:15:28;;;;;;;;;;;6.20;99.90;;;;;;5095406;28;20385;-77
2020/12/04 11:17:54;;;;;;;;;;;6.20;99.90;;;;;;5094153;28;19965;-78
2020/12/04 11:20:20;;;;;;;;;;;6.20;99.90;;;;;;5092684;28;19923;-77
2020/12/04 11:22:46;;;;;;;;;;;6.40;99.90;;;;;;5094967;28;19919;-77
2020/12/04 11:25:12;;;;;;;;;;;6.30;99.90;;;;;;5093867;28;19919;-77
2020/12/04 11:27:42;;;;;;;;;;;6.30;99.90;;;;;;5095049;28;20020;-77
2020/12/04 11:30:09;;;;;;;;;;;6.30;99.90;;;;;;5093400;28;19927;-77
2020/12/04 11:32:34;;;;;;;;;;;6.30;99.90;;;;;;5094721;28;19919;-77
2020/12/04 11:35:00;;;;;;;;;;;6.30;99.90;;;;;;5094825;28;19920;-77
2020/12/04 11:37:25;;;;;;;;;;;6.40;99.90;;;;;;5094976;28;19949;-77
2020/12/04 11:39:51;;;;;;;;;;;6.40;99.90;;;;;;5094540;28;19959;-77
2020/12/04 11:42:17;;;;;;;;;;;6.40;99.90;;;;;;5094595;28;19963;-77
2020/12/04 11:44:42;;;;;;;;;;;6.50;99.90;;;;;;5094995;28;20299;-77
2020/12/04 11:47:08;;;;;;;;;;;6.50;99.90;;;;;;5094566;28;19934;-77
2020/12/04 11:49:34;;;;;;;;;;;6.60;99.90;;;;;;5094358;28;19926;-77
2020/12/04 11:51:59;;;;;;;;;;;6.60;99.90;;;;;;5094711;28;20018;-78
2020/12/04 11:54:25;;;;;;;;;;;6.70;99.90;;;;;;5094969;28;20361;-77
2020/12/04 11:56:51;;;;;;;;;;;6.80;99.90;;;;;;5093739;28;19920;-78
2020/12/04 11:59:16;;;;;;;;;;;6.90;99.90;;;;;;5093827;28;20537;-78
2020/12/04 12:01:42;;;;;;;;;;;6.90;99.90;;;;;;5093335;28;19935;-77
2020/12/04 12:04:12;;;;;;;;;;;7.00;99.90;;;;;;5093263;28;20003;-78
2020/12/04 12:06:38;;;;;;;;;;;7.00;99.90;;;;;;5093248;28;19927;-77
2020/12/04 12:09:03;;;;;;;;;;;7.10;99.90;;;;;;5092377;28;19932;-78
2020/12/04 12:11:28;;;;;;;;;;;7.10;99.90;;;;;;5094036;28;19931;-77
2020/12/04 12:13:54;;;;;;;;;;;7.20;99.90;;;;;;5094357;28;20270;-78
2020/12/04 12:16:21;;;;;;;;;;;7.10;99.90;;;;;;5094414;28;19966;-77
2020/12/04 12:18:47;;;;;;;;;;;7.10;99.90;;;;;;5093658;28;19948;-77
2020/12/04 12:21:13;;;;;;;;;;;7.10;99.90;;;;;;5093061;28;19974;-77
2020/12/04 12:23:39;;;;;;;;;;;7.20;99.90;;;;;;5093824;28;19924;-77
2020/12/04 12:26:05;;;;;;;;;;;7.20;99.90;;;;;;5093971;28;19923;-77
2020/12/04 12:28:30;;;;;;;;;;;7.30;99.90;;;;;;5092667;28;19924;-78
2020/12/04 12:30:56;;;;;;;;;;;7.30;99.90;;;;;;5093396;28;19924;-78
2020/12/04 12:33:21;;;;;;;;;;;7.30;99.90;;;;;;5093988;28;19963;-77
2020/12/04 12:35:47;;;;;;;;;;;7.30;99.90;;;;;;5092738;28;20590;-78
2020/12/04 12:38:13;;;;;;;;;;;7.30;99.90;;;;;;5093709;28;20417;-77
2020/12/04 12:40:38;;;;;;;;;;;7.30;99.90;;;;;;5093112;28;19924;-78
2020/12/04 12:43:05;;;;;;;;;;;7.30;99.90;;;;;;5091230;28;20015;-77
2020/12/04 12:45:30;;;;;;;;;;;7.40;99.90;;;;;;5092925;28;19926;-78
2020/12/04 12:47:56;;;;;;;;;;;7.50;99.90;;;;;;5091952;28;20002;-79
2020/12/04 12:50:21;;;;;;;;;;;7.60;99.90;;;;;;5092606;28;19916;-77
2020/12/04 12:52:48;;;;;;;;;;;7.60;99.90;;;;;;5092642;28;19945;-77
2020/12/04 12:55:14;;;;;;;;;;;7.70;99.90;;;;;;5091911;28;20093;-77
2020/12/04 12:57:40;;;;;;;;;;;7.80;99.90;;;;;;5094843;28;19920;-79
2020/12/04 13:00:06;;;;;;;;;;;8.10;99.90;;;;;;5091508;28;19971;-78
2020/12/04 13:02:31;;;;;;;;;;;8.10;99.90;;;;;;5091766;28;19966;-78
2020/12/04 13:04:57;;;;;;;;;;;8.00;99.90;;;;;;5093887;28;20373;-77
2020/12/04 13:07:22;;;;;;;;;;;7.90;99.90;;;;;;5091618;28;20374;-78
2020/12/04 13:09:48;;;;;;;;;;;7.70;99.90;;;;;;5093013;28;19920;-79
2020/12/04 13:12:14;;;;;;;;;;;7.70;99.90;;;;;;5094836;28;19928;-78
2020/12/04 13:14:39;;;;;;;;;;;7.70;99.90;;;;;;5092644;28;19924;-79
2020/12/04 13:17:05;;;;;;;;;;;7.60;99.90;;;;;;5098603;28;19922;-80
2020/12/04 13:19:30;;;;;;;;;;;7.70;99.90;;;;;;5098652;28;20030;-79
2020/12/04 13:22:00;;;;;;;;;;;7.90;99.90;;;;;;5098376;28;19955;-79
2020/12/04 13:24:26;;;;;;;;;;;7.90;99.90;;;;;;5095251;28;19927;-79
2020/12/04 13:26:52;;;;;;;;;;;7.80;99.90;;;;;;5113629;28;19954;-79
2020/12/04 13:29:18;;;;;;;;;;;7.70;99.90;;;;;;5115195;28;19974;-79
2020/12/04 13:31:44;;;;;;;;;;;7.60;99.90;;;;;;5115955;28;19924;-78
2020/12/04 13:34:10;;;;;;;;;;;7.50;99.90;;;;;;5116087;28;19923;-78
2020/12/04 13:36:35;;;;;;;;;;;7.40;99.90;;;;;;5115159;28;20350;-78
2020/12/04 13:39:01;;;;;;;;;;;7.40;99.90;;;;;;5112710;27;20259;-78
2020/12/04 13:41:27;;;;;;;;;;;7.30;99.90;;;;;;5113786;28;19947;-78
2020/12/04 13:43:52;;;;;;;;;;;7.20;99.90;;;;;;5114830;28;19916;-78
2020/12/04 13:46:18;;;;;;;;;;;7.20;99.90;;;;;;5114799;28;19920;-78
2020/12/04 13:48:44;;;;;;;;;;;7.20;99.90;;;;;;5114932;28;19926;-78
2020/12/04 13:51:10;;;;;;;;;;;7.20;99.90;;;;;;5113252;28;20006;-77
2020/12/04 13:53:35;;;;;;;;;;;7.20;99.90;;;;;;5113284;28;19922;-77
2020/12/04 13:56:01;;;;;;;;;;;7.30;99.90;;;;;;5113195;28;19961;-77
2020/12/04 13:58:26;;;;;;;;;;;7.30;99.90;;;;;;5113095;28;20356;-77
2020/12/04 14:00:53;;;;;;;;;;;7.40;99.90;;;;;;5112476;28;20368;-77
2020/12/04 14:03:20;;;;;;;;;;;7.40;99.90;;;;;;5112957;28;19951;-77
2020/12/04 14:05:49;;;;;;;;;;;7.40;99.90;;;;;;5114381;28;20014;-78
2020/12/04 14:08:14;;;;;;;;;;;7.40;99.90;;;;;;5114136;28;19920;-78
2020/12/04 14:10:40;;;;;;;;;;;7.40;99.90;;;;;;5113523;28;19923;-77
2020/12/04 14:13:05;;;;;;;;;;;7.40;99.90;;;;;;5113035;28;19916;-77
2020/12/04 14:15:31;;;;;;;;;;;7.40;99.90;;;;;;5114399;28;20323;-78
2020/12/04 14:17:56;;;;;;;;;;;7.40;99.90;;;;;;5113397;28;19951;-79
2020/12/04 14:20:23;;;;;;;;;;;7.40;99.90;;;;;;5113405;28;19919;-78
2020/12/04 14:22:48;;;;;;;;;;;7.50;99.90;;;;;;5112861;28;19962;-78
2020/12/04 14:25:13;;;;;;;;;;;7.50;99.90;;;;;;5114263;28;19923;-78
2020/12/04 14:27:39;;;;;;;;;;;7.50;99.90;;;;;;5112996;28;20361;-78